KBTV

Burlington International Airport

Burlington, Vermont, USA
METAR KBTV 230954Z 00000KT 10SM CLR M07/M09 A3066 RMK AO2 SLP389 T10721094
Observed Flight Rules
Feb-23 @ 09:54 UTC (37 minutes ago) Visual Flight Rules
Wind Visibility Clouds
Calm 10 miles
  • Clear skies
Temperatures Readings
Current -7°C / 19°F
Dewpoint -9°C / 16°F
Humidity 86%
Altimeter 30.66" Hg
Pressure 1038.9 hPa
Elevation 105
METAR KBTV 230954Z 00000KT 10SM CLR M07/M09 A3066 RMK AO2 SLP389 T10721094
Observed Flight Rules
Feb-23 @ 09:54 UTC
(37 minutes ago)
VFR
Wind Visibility
Calm 10 miles
Clouds
  • Clear skies
Temperature Dewpoint
-7°C / 19°F -9°C / 16°F
Humidity Altimeter Pressure
86% 30.66" Hg 1038.9 hPa